sensor_id;sensor_type;location;lat;lon;timestamp;P1;durP1;ratioP1;P2;durP2;ratioP2
68375;SDS011;55318;52.068;5.188;2024-02-21T00:00:06;6.4;;;2.7;;
68375;SDS011;55318;52.068;5.188;2024-02-21T00:01:43;7.0;;;2.5;;
68375;SDS011;55318;52.068;5.188;2024-02-21T00:03:19;6.0;;;2.6;;
68375;SDS011;55318;52.068;5.188;2024-02-21T00:06:32;6.4;;;2.31;;
68375;SDS011;55318;52.068;5.188;2024-02-21T00:08:08;5.7;;;2.4;;
68375;SDS011;55318;52.068;5.188;2024-02-21T00:09:44;5.4;;;2.6;;
68375;SDS011;55318;52.068;5.188;2024-02-21T00:12:57;5.4;;;3.2;;
68375;SDS011;55318;52.068;5.188;2024-02-21T00:14:33;7.1;;;3.3;;
68375;SDS011;55318;52.068;5.188;2024-02-21T00:16:09;8.71;;;3.0;;
68375;SDS011;55318;52.068;5.188;2024-02-21T00:19:21;5.8;;;2.1;;
68375;SDS011;55318;52.068;5.188;2024-02-21T00:20:57;10.0;;;3.2;;
68375;SDS011;55318;52.068;5.188;2024-02-21T00:22:33;9.4;;;2.6;;
68375;SDS011;55318;52.068;5.188;2024-02-21T00:24:09;7.1;;;2.6;;
68375;SDS011;55318;52.068;5.188;2024-02-21T00:27:21;10.7;;;3.1;;
68375;SDS011;55318;52.068;5.188;2024-02-21T00:28:57;8.81;;;2.31;;
68375;SDS011;55318;52.068;5.188;2024-02-21T00:30:34;6.2;;;2.4;;
68375;SDS011;55318;52.068;5.188;2024-02-21T00:33:46;11.5;;;2.6;;
68375;SDS011;55318;52.068;5.188;2024-02-21T00:35:22;6.5;;;2.6;;
68375;SDS011;55318;52.068;5.188;2024-02-21T00:36:58;10.0;;;3.0;;
68375;SDS011;55318;52.068;5.188;2024-02-21T00:40:10;7.1;;;3.0;;
68375;SDS011;55318;52.068;5.188;2024-02-21T00:41:47;5.4;;;2.4;;
68375;SDS011;55318;52.068;5.188;2024-02-21T00:43:23;10.4;;;3.0;;
68375;SDS011;55318;52.068;5.188;2024-02-21T00:46:35;5.3;;;2.5;;
68375;SDS011;55318;52.068;5.188;2024-02-21T00:48:12;6.9;;;2.5;;
68375;SDS011;55318;52.068;5.188;2024-02-21T00:49:48;9.4;;;3.2;;
68375;SDS011;55318;52.068;5.188;2024-02-21T00:51:24;9.0;;;3.6;;
68375;SDS011;55318;52.068;5.188;2024-02-21T00:54:36;14.8;;;5.0;;
68375;SDS011;55318;52.068;5.188;2024-02-21T00:56:12;12.1;;;3.6;;
68375;SDS011;55318;52.068;5.188;2024-02-21T00:57:48;8.71;;;2.9;;
68375;SDS011;55318;52.068;5.188;2024-02-21T01:01:01;7.5;;;2.6;;
68375;SDS011;55318;52.068;5.188;2024-02-21T01:02:37;7.5;;;2.4;;
68375;SDS011;55318;52.068;5.188;2024-02-21T01:04:13;7.8;;;2.4;;
68375;SDS011;55318;52.068;5.188;2024-02-21T01:07:26;6.1;;;3.2;;
68375;SDS011;55318;52.068;5.188;2024-02-21T01:09:02;5.5;;;2.31;;
68375;SDS011;55318;52.068;5.188;2024-02-21T01:10:38;5.9;;;3.0;;
68375;SDS011;55318;52.068;5.188;2024-02-21T01:13:51;6.3;;;3.1;;
68375;SDS011;55318;52.068;5.188;2024-02-21T01:15:27;6.1;;;2.5;;
68375;SDS011;55318;52.068;5.188;2024-02-21T01:17:03;6.9;;;3.0;;
68375;SDS011;55318;52.068;5.188;2024-02-21T01:18:39;7.6;;;2.7;;
68375;SDS011;55318;52.068;5.188;2024-02-21T01:21:51;12.1;;;3.2;;
68375;SDS011;55318;52.068;5.188;2024-02-21T01:23:28;7.1;;;3.1;;
68375;SDS011;55318;52.068;5.188;2024-02-21T01:25:04;5.7;;;2.7;;
68375;SDS011;55318;52.068;5.188;2024-02-21T01:28:17;5.9;;;2.4;;
68375;SDS011;55318;52.068;5.188;2024-02-21T01:29:54;6.3;;;2.5;;
68375;SDS011;55318;52.068;5.188;2024-02-21T01:31:30;11.4;;;3.0;;
68375;SDS011;55318;52.068;5.188;2024-02-21T01:34:42;9.31;;;3.0;;
68375;SDS011;55318;52.068;5.188;2024-02-21T01:36:18;6.4;;;2.6;;
68375;SDS011;55318;52.068;5.188;2024-02-21T01:37:54;10.3;;;3.4;;
68375;SDS011;55318;52.068;5.188;2024-02-21T01:39:30;6.3;;;2.8;;
68375;SDS011;55318;52.068;5.188;2024-02-21T01:42:43;7.1;;;2.8;;
68375;SDS011;55318;52.068;5.188;2024-02-21T01:44:19;7.9;;;2.7;;
68375;SDS011;55318;52.068;5.188;2024-02-21T01:45:55;9.9;;;3.8;;
68375;SDS011;55318;52.068;5.188;2024-02-21T01:49:11;6.3;;;2.6;;
68375;SDS011;55318;52.068;5.188;2024-02-21T01:50:48;8.1;;;3.2;;
68375;SDS011;55318;52.068;5.188;2024-02-21T01:52:25;12.6;;;3.9;;
68375;SDS011;55318;52.068;5.188;2024-02-21T01:55:37;7.4;;;2.9;;
68375;SDS011;55318;52.068;5.188;2024-02-21T01:57:13;8.6;;;2.9;;
68375;SDS011;55318;52.068;5.188;2024-02-21T01:58:50;8.5;;;3.3;;
68375;SDS011;55318;52.068;5.188;2024-02-21T02:00:27;7.2;;;3.1;;
68375;SDS011;55318;52.068;5.188;2024-02-21T02:03:42;8.5;;;3.0;;
68375;SDS011;55318;52.068;5.188;2024-02-21T02:05:19;5.6;;;2.9;;
68375;SDS011;55318;52.068;5.188;2024-02-21T02:06:56;7.2;;;3.3;;
68375;SDS011;55318;52.068;5.188;2024-02-21T02:10:12;9.21;;;2.9;;
68375;SDS011;55318;52.068;5.188;2024-02-21T02:11:48;6.6;;;2.5;;
68375;SDS011;55318;52.068;5.188;2024-02-21T02:13:24;6.1;;;3.5;;
68375;SDS011;55318;52.068;5.188;2024-02-21T02:15:01;12.6;;;3.6;;
68375;SDS011;55318;52.068;5.188;2024-02-21T02:18:19;7.6;;;3.3;;
68375;SDS011;55318;52.068;5.188;2024-02-21T02:19:56;10.6;;;3.9;;
68375;SDS011;55318;52.068;5.188;2024-02-21T02:21:32;10.7;;;3.5;;
68375;SDS011;55318;52.068;5.188;2024-02-21T02:24:57;6.5;;;3.1;;
68375;SDS011;55318;52.068;5.188;2024-02-21T02:26:34;6.3;;;3.1;;
68375;SDS011;55318;52.068;5.188;2024-02-21T02:28:10;6.5;;;3.1;;
68375;SDS011;55318;52.068;5.188;2024-02-21T02:29:46;8.31;;;3.5;;
68375;SDS011;55318;52.068;5.188;2024-02-21T02:32:58;6.5;;;3.3;;
68375;SDS011;55318;52.068;5.188;2024-02-21T02:34:34;9.5;;;4.1;;
68375;SDS011;55318;52.068;5.188;2024-02-21T02:36:11;7.8;;;3.5;;
68375;SDS011;55318;52.068;5.188;2024-02-21T02:39:25;5.11;;;3.5;;
68375;SDS011;55318;52.068;5.188;2024-02-21T02:41:01;7.9;;;4.41;;
68375;SDS011;55318;52.068;5.188;2024-02-21T02:42:37;7.8;;;3.3;;
68375;SDS011;55318;52.068;5.188;2024-02-21T02:45:49;13.2;;;3.7;;
68375;SDS011;55318;52.068;5.188;2024-02-21T02:47:25;9.21;;;3.3;;
68375;SDS011;55318;52.068;5.188;2024-02-21T02:49:01;6.9;;;3.4;;
68375;SDS011;55318;52.068;5.188;2024-02-21T02:50:37;10.6;;;3.5;;
68375;SDS011;55318;52.068;5.188;2024-02-21T02:53:49;7.4;;;3.3;;
68375;SDS011;55318;52.068;5.188;2024-02-21T02:55:26;5.6;;;3.2;;
68375;SDS011;55318;52.068;5.188;2024-02-21T02:57:02;12.2;;;3.4;;
68375;SDS011;55318;52.068;5.188;2024-02-21T03:00:14;5.8;;;3.2;;
68375;SDS011;55318;52.068;5.188;2024-02-21T03:01:51;7.1;;;3.2;;
68375;SDS011;55318;52.068;5.188;2024-02-21T03:03:27;5.5;;;2.8;;
68375;SDS011;55318;52.068;5.188;2024-02-21T03:06:49;7.8;;;2.9;;
68375;SDS011;55318;52.068;5.188;2024-02-21T03:08:25;6.0;;;2.6;;
68375;SDS011;55318;52.068;5.188;2024-02-21T03:10:01;4.8;;;2.7;;
68375;SDS011;55318;52.068;5.188;2024-02-21T03:11:38;8.1;;;3.0;;
68375;SDS011;55318;52.068;5.188;2024-02-21T03:14:51;7.0;;;3.0;;
68375;SDS011;55318;52.068;5.188;2024-02-21T03:16:27;6.4;;;3.0;;
68375;SDS011;55318;52.068;5.188;2024-02-21T03:18:03;5.9;;;2.9;;
68375;SDS011;55318;52.068;5.188;2024-02-21T03:21:16;6.4;;;3.5;;
68375;SDS011;55318;52.068;5.188;2024-02-21T03:22:52;13.0;;;4.0;;
68375;SDS011;55318;52.068;5.188;2024-02-21T03:24:28;9.21;;;4.0;;
68375;SDS011;55318;52.068;5.188;2024-02-21T03:27:43;4.5;;;2.6;;
68375;SDS011;55318;52.068;5.188;2024-02-21T03:29:19;10.3;;;3.4;;
68375;SDS011;55318;52.068;5.188;2024-02-21T03:30:55;7.3;;;3.3;;
68375;SDS011;55318;52.068;5.188;2024-02-21T03:32:31;5.6;;;3.4;;
68375;SDS011;55318;52.068;5.188;2024-02-21T03:37:22;5.9;;;3.4;;
68375;SDS011;55318;52.068;5.188;2024-02-21T03:38:58;11.1;;;3.9;;
68375;SDS011;55318;52.068;5.188;2024-02-21T03:42:10;7.3;;;3.1;;
68375;SDS011;55318;52.068;5.188;2024-02-21T03:43:47;6.9;;;3.1;;
68375;SDS011;55318;52.068;5.188;2024-02-21T03:45:23;6.9;;;3.4;;
68375;SDS011;55318;52.068;5.188;2024-02-21T03:48:36;6.4;;;2.9;;
68375;SDS011;55318;52.068;5.188;2024-02-21T03:50:13;9.71;;;3.5;;
68375;SDS011;55318;52.068;5.188;2024-02-21T03:51:49;6.3;;;3.4;;
68375;SDS011;55318;52.068;5.188;2024-02-21T03:53:25;6.2;;;3.1;;
68375;SDS011;55318;52.068;5.188;2024-02-21T03:56:38;9.71;;;3.3;;
68375;SDS011;55318;52.068;5.188;2024-02-21T03:58:15;5.9;;;3.0;;
68375;SDS011;55318;52.068;5.188;2024-02-21T03:59:51;6.7;;;2.7;;
68375;SDS011;55318;52.068;5.188;2024-02-21T04:03:03;6.8;;;2.7;;
68375;SDS011;55318;52.068;5.188;2024-02-21T04:04:42;8.81;;;3.6;;
68375;SDS011;55318;52.068;5.188;2024-02-21T04:06:18;6.5;;;3.0;;
68375;SDS011;55318;52.068;5.188;2024-02-21T04:09:31;6.5;;;3.5;;
68375;SDS011;55318;52.068;5.188;2024-02-21T04:11:07;5.0;;;2.9;;
68375;SDS011;55318;52.068;5.188;2024-02-21T04:12:43;5.2;;;3.0;;
68375;SDS011;55318;52.068;5.188;2024-02-21T04:14:19;7.1;;;3.0;;
68375;SDS011;55318;52.068;5.188;2024-02-21T04:17:31;6.6;;;3.3;;
68375;SDS011;55318;52.068;5.188;2024-02-21T04:19:07;7.0;;;3.2;;
68375;SDS011;55318;52.068;5.188;2024-02-21T04:20:43;5.0;;;3.1;;
68375;SDS011;55318;52.068;5.188;2024-02-21T04:23:56;6.7;;;3.3;;
68375;SDS011;55318;52.068;5.188;2024-02-21T04:25:32;6.9;;;3.1;;
68375;SDS011;55318;52.068;5.188;2024-02-21T04:27:08;6.1;;;3.5;;
68375;SDS011;55318;52.068;5.188;2024-02-21T04:30:21;8.2;;;3.3;;
68375;SDS011;55318;52.068;5.188;2024-02-21T04:31:57;11.1;;;3.5;;
68375;SDS011;55318;52.068;5.188;2024-02-21T04:33:33;7.4;;;3.5;;
68375;SDS011;55318;52.068;5.188;2024-02-21T04:36:45;7.4;;;3.5;;
68375;SDS011;55318;52.068;5.188;2024-02-21T04:38:21;7.2;;;4.1;;
68375;SDS011;55318;52.068;5.188;2024-02-21T04:39:57;6.9;;;3.5;;
68375;SDS011;55318;52.068;5.188;2024-02-21T04:41:33;5.9;;;2.9;;
68375;SDS011;55318;52.068;5.188;2024-02-21T04:44:46;9.9;;;3.9;;
68375;SDS011;55318;52.068;5.188;2024-02-21T04:46:22;6.6;;;4.5;;
68375;SDS011;55318;52.068;5.188;2024-02-21T04:47:58;7.1;;;3.3;;
68375;SDS011;55318;52.068;5.188;2024-02-21T04:51:11;8.0;;;3.7;;
68375;SDS011;55318;52.068;5.188;2024-02-21T04:52:47;7.0;;;4.3;;
68375;SDS011;55318;52.068;5.188;2024-02-21T04:54:23;7.3;;;3.7;;
68375;SDS011;55318;52.068;5.188;2024-02-21T04:57:39;7.9;;;3.7;;
68375;SDS011;55318;52.068;5.188;2024-02-21T04:59:16;8.9;;;4.2;;
68375;SDS011;55318;52.068;5.188;2024-02-21T05:00:53;7.4;;;4.2;;
68375;SDS011;55318;52.068;5.188;2024-02-21T05:02:29;8.5;;;4.0;;
68375;SDS011;55318;52.068;5.188;2024-02-21T05:05:41;6.7;;;4.3;;
68375;SDS011;55318;52.068;5.188;2024-02-21T05:07:17;7.4;;;3.8;;
68375;SDS011;55318;52.068;5.188;2024-02-21T05:08:53;7.2;;;4.0;;
68375;SDS011;55318;52.068;5.188;2024-02-21T05:12:05;7.0;;;4.7;;
68375;SDS011;55318;52.068;5.188;2024-02-21T05:13:41;10.9;;;4.2;;
68375;SDS011;55318;52.068;5.188;2024-02-21T05:15:18;7.1;;;4.61;;
68375;SDS011;55318;52.068;5.188;2024-02-21T05:18:31;5.6;;;3.9;;
68375;SDS011;55318;52.068;5.188;2024-02-21T05:20:07;7.2;;;4.1;;
68375;SDS011;55318;52.068;5.188;2024-02-21T05:21:44;6.9;;;3.9;;
68375;SDS011;55318;52.068;5.188;2024-02-21T05:23:20;7.4;;;4.1;;
68375;SDS011;55318;52.068;5.188;2024-02-21T05:26:32;7.2;;;4.1;;
68375;SDS011;55318;52.068;5.188;2024-02-21T05:28:08;6.3;;;4.0;;
68375;SDS011;55318;52.068;5.188;2024-02-21T05:29:47;7.5;;;3.5;;
68375;SDS011;55318;52.068;5.188;2024-02-21T05:33:03;7.2;;;4.0;;
68375;SDS011;55318;52.068;5.188;2024-02-21T05:34:40;8.2;;;4.1;;
68375;SDS011;55318;52.068;5.188;2024-02-21T05:36:16;12.0;;;4.5;;
68375;SDS011;55318;52.068;5.188;2024-02-21T05:39:28;5.5;;;3.5;;
68375;SDS011;55318;52.068;5.188;2024-02-21T05:41:04;5.11;;;3.6;;
68375;SDS011;55318;52.068;5.188;2024-02-21T05:42:41;9.71;;;4.3;;
68375;SDS011;55318;52.068;5.188;2024-02-21T05:44:17;7.6;;;4.0;;
68375;SDS011;55318;52.068;5.188;2024-02-21T05:47:30;5.4;;;3.8;;
68375;SDS011;55318;52.068;5.188;2024-02-21T05:49:06;6.6;;;3.6;;
68375;SDS011;55318;52.068;5.188;2024-02-21T05:50:42;5.3;;;3.7;;
68375;SDS011;55318;52.068;5.188;2024-02-21T05:53:55;6.8;;;4.0;;
68375;SDS011;55318;52.068;5.188;2024-02-21T05:55:31;10.4;;;4.1;;
68375;SDS011;55318;52.068;5.188;2024-02-21T05:57:07;7.9;;;4.3;;
68375;SDS011;55318;52.068;5.188;2024-02-21T06:00:20;6.2;;;4.0;;
68375;SDS011;55318;52.068;5.188;2024-02-21T06:01:56;9.4;;;4.2;;
68375;SDS011;55318;52.068;5.188;2024-02-21T06:03:32;7.7;;;5.11;;
68375;SDS011;55318;52.068;5.188;2024-02-21T06:05:09;8.5;;;4.2;;
68375;SDS011;55318;52.068;5.188;2024-02-21T06:08:22;10.6;;;5.11;;
68375;SDS011;55318;52.068;5.188;2024-02-21T06:09:58;8.4;;;5.0;;
68375;SDS011;55318;52.068;5.188;2024-02-21T06:11:34;9.0;;;5.0;;
68375;SDS011;55318;52.068;5.188;2024-02-21T06:14:46;10.1;;;4.91;;
68375;SDS011;55318;52.068;5.188;2024-02-21T06:16:22;8.4;;;5.3;;
68375;SDS011;55318;52.068;5.188;2024-02-21T06:17:58;11.0;;;5.5;;
68375;SDS011;55318;52.068;5.188;2024-02-21T06:21:11;8.4;;;5.3;;
68375;SDS011;55318;52.068;5.188;2024-02-21T06:22:47;10.7;;;5.5;;
68375;SDS011;55318;52.068;5.188;2024-02-21T06:24:24;12.8;;;6.1;;
68375;SDS011;55318;52.068;5.188;2024-02-21T06:27:36;9.4;;;5.6;;
68375;SDS011;55318;52.068;5.188;2024-02-21T06:29:12;11.0;;;5.5;;
68375;SDS011;55318;52.068;5.188;2024-02-21T06:30:48;14.1;;;5.11;;
68375;SDS011;55318;52.068;5.188;2024-02-21T06:32:24;10.0;;;5.6;;
68375;SDS011;55318;52.068;5.188;2024-02-21T06:35:36;10.21;;;6.0;;
68375;SDS011;55318;52.068;5.188;2024-02-21T06:37:15;11.8;;;5.6;;
68375;SDS011;55318;52.068;5.188;2024-02-21T06:38:51;8.0;;;5.8;;
68375;SDS011;55318;52.068;5.188;2024-02-21T06:42:04;13.5;;;5.6;;
68375;SDS011;55318;52.068;5.188;2024-02-21T06:43:40;10.0;;;5.9;;
68375;SDS011;55318;52.068;5.188;2024-02-21T06:45:16;16.11;;;6.5;;
68375;SDS011;55318;52.068;5.188;2024-02-21T06:48:29;11.0;;;5.6;;
68375;SDS011;55318;52.068;5.188;2024-02-21T06:50:05;13.3;;;6.0;;
68375;SDS011;55318;52.068;5.188;2024-02-21T06:51:42;9.4;;;6.1;;
68375;SDS011;55318;52.068;5.188;2024-02-21T06:53:18;13.7;;;6.0;;
68375;SDS011;55318;52.068;5.188;2024-02-21T06:56:30;12.6;;;6.3;;
68375;SDS011;55318;52.068;5.188;2024-02-21T06:58:07;11.7;;;6.3;;
68375;SDS011;55318;52.068;5.188;2024-02-21T06:59:43;16.11;;;6.9;;
68375;SDS011;55318;52.068;5.188;2024-02-21T07:02:55;13.6;;;6.7;;
68375;SDS011;55318;52.068;5.188;2024-02-21T07:04:31;12.9;;;6.6;;
68375;SDS011;55318;52.068;5.188;2024-02-21T07:06:07;13.4;;;7.3;;
68375;SDS011;55318;52.068;5.188;2024-02-21T07:09:19;12.8;;;6.6;;
68375;SDS011;55318;52.068;5.188;2024-02-21T07:10:55;13.0;;;6.6;;
68375;SDS011;55318;52.068;5.188;2024-02-21T07:12:31;14.0;;;6.7;;
68375;SDS011;55318;52.068;5.188;2024-02-21T07:15:44;14.5;;;7.1;;
68375;SDS011;55318;52.068;5.188;2024-02-21T07:17:20;15.6;;;7.6;;
68375;SDS011;55318;52.068;5.188;2024-02-21T07:18:56;19.41;;;7.7;;
68375;SDS011;55318;52.068;5.188;2024-02-21T07:20:32;14.1;;;7.0;;
68375;SDS011;55318;52.068;5.188;2024-02-21T07:23:44;17.8;;;7.8;;
68375;SDS011;55318;52.068;5.188;2024-02-21T07:25:20;14.9;;;7.5;;
68375;SDS011;55318;52.068;5.188;2024-02-21T07:26:56;14.1;;;7.6;;
68375;SDS011;55318;52.068;5.188;2024-02-21T07:30:09;13.0;;;7.2;;
68375;SDS011;55318;52.068;5.188;2024-02-21T07:31:46;11.6;;;6.4;;
68375;SDS011;55318;52.068;5.188;2024-02-21T07:33:22;15.3;;;6.3;;
68375;SDS011;55318;52.068;5.188;2024-02-21T07:36:34;14.8;;;6.5;;
68375;SDS011;55318;52.068;5.188;2024-02-21T07:38:11;13.1;;;6.3;;
68375;SDS011;55318;52.068;5.188;2024-02-21T07:39:47;15.8;;;7.0;;
68375;SDS011;55318;52.068;5.188;2024-02-21T07:41:23;13.1;;;6.9;;
68375;SDS011;55318;52.068;5.188;2024-02-21T07:44:36;16.11;;;6.8;;
68375;SDS011;55318;52.068;5.188;2024-02-21T07:46:12;14.3;;;6.4;;
68375;SDS011;55318;52.068;5.188;2024-02-21T07:47:48;15.3;;;6.8;;
68375;SDS011;55318;52.068;5.188;2024-02-21T07:51:01;12.5;;;6.7;;
68375;SDS011;55318;52.068;5.188;2024-02-21T07:52:37;13.4;;;6.3;;
68375;SDS011;55318;52.068;5.188;2024-02-21T07:54:14;12.1;;;5.5;;
68375;SDS011;55318;52.068;5.188;2024-02-21T07:57:26;11.6;;;6.0;;
68375;SDS011;55318;52.068;5.188;2024-02-21T07:59:02;11.5;;;6.5;;
68375;SDS011;55318;52.068;5.188;2024-02-21T08:00:38;13.4;;;5.8;;
68375;SDS011;55318;52.068;5.188;2024-02-21T08:03:51;14.5;;;6.5;;
68375;SDS011;55318;52.068;5.188;2024-02-21T08:05:28;12.0;;;6.0;;
68375;SDS011;55318;52.068;5.188;2024-02-21T08:07:04;12.5;;;6.3;;
68375;SDS011;55318;52.068;5.188;2024-02-21T08:08:40;13.0;;;6.3;;
68375;SDS011;55318;52.068;5.188;2024-02-21T08:11:53;11.2;;;6.9;;
68375;SDS011;55318;52.068;5.188;2024-02-21T08:13:30;11.3;;;6.1;;
68375;SDS011;55318;52.068;5.188;2024-02-21T08:15:07;12.5;;;5.9;;
68375;SDS011;55318;52.068;5.188;2024-02-21T08:18:23;13.9;;;6.0;;
68375;SDS011;55318;52.068;5.188;2024-02-21T08:19:59;15.2;;;6.5;;
68375;SDS011;55318;52.068;5.188;2024-02-21T08:21:36;13.7;;;7.0;;
68375;SDS011;55318;52.068;5.188;2024-02-21T08:24:48;11.5;;;6.5;;
68375;SDS011;55318;52.068;5.188;2024-02-21T08:26:24;12.0;;;7.1;;
68375;SDS011;55318;52.068;5.188;2024-02-21T08:28:00;15.0;;;7.0;;
68375;SDS011;55318;52.068;5.188;2024-02-21T08:29:36;16.11;;;8.0;;
68375;SDS011;55318;52.068;5.188;2024-02-21T08:32:54;12.0;;;6.6;;
68375;SDS011;55318;52.068;5.188;2024-02-21T08:34:30;11.1;;;7.3;;
68375;SDS011;55318;52.068;5.188;2024-02-21T08:36:06;17.5;;;8.31;;
68375;SDS011;55318;52.068;5.188;2024-02-21T08:39:19;16.0;;;7.9;;
68375;SDS011;55318;52.068;5.188;2024-02-21T08:40:55;14.4;;;7.9;;
68375;SDS011;55318;52.068;5.188;2024-02-21T08:42:31;12.4;;;7.5;;
68375;SDS011;55318;52.068;5.188;2024-02-21T08:45:46;15.9;;;7.7;;
68375;SDS011;55318;52.068;5.188;2024-02-21T08:47:22;17.61;;;8.31;;
68375;SDS011;55318;52.068;5.188;2024-02-21T08:48:58;16.3;;;8.2;;
68375;SDS011;55318;52.068;5.188;2024-02-21T08:50:34;18.5;;;6.9;;
68375;SDS011;55318;52.068;5.188;2024-02-21T08:53:47;13.0;;;7.4;;
68375;SDS011;55318;52.068;5.188;2024-02-21T08:55:25;9.81;;;6.3;;
68375;SDS011;55318;52.068;5.188;2024-02-21T08:57:01;15.2;;;7.1;;
68375;SDS011;55318;52.068;5.188;2024-02-21T09:00:15;11.9;;;7.2;;
68375;SDS011;55318;52.068;5.188;2024-02-21T09:01:52;13.1;;;6.9;;
68375;SDS011;55318;52.068;5.188;2024-02-21T09:03:28;16.11;;;7.0;;
68375;SDS011;55318;52.068;5.188;2024-02-21T09:05:04;16.61;;;7.7;;
68375;SDS011;55318;52.068;5.188;2024-02-21T09:08:20;11.7;;;5.9;;
68375;SDS011;55318;52.068;5.188;2024-02-21T09:09:56;11.7;;;6.8;;
68375;SDS011;55318;52.068;5.188;2024-02-21T09:11:32;10.1;;;6.0;;
68375;SDS011;55318;52.068;5.188;2024-02-21T09:14:46;13.9;;;6.1;;
68375;SDS011;55318;52.068;5.188;2024-02-21T09:16:22;11.5;;;5.5;;
68375;SDS011;55318;52.068;5.188;2024-02-21T09:17:58;11.1;;;5.5;;
68375;SDS011;55318;52.068;5.188;2024-02-21T09:21:11;8.6;;;5.4;;
68375;SDS011;55318;52.068;5.188;2024-02-21T09:22:48;10.7;;;5.7;;
68375;SDS011;55318;52.068;5.188;2024-02-21T09:24:24;12.5;;;5.7;;
68375;SDS011;55318;52.068;5.188;2024-02-21T09:26:00;9.21;;;5.2;;
68375;SDS011;55318;52.068;5.188;2024-02-21T09:29:13;11.5;;;5.6;;
68375;SDS011;55318;52.068;5.188;2024-02-21T09:30:51;12.9;;;5.3;;
68375;SDS011;55318;52.068;5.188;2024-02-21T09:32:27;9.81;;;5.11;;
68375;SDS011;55318;52.068;5.188;2024-02-21T09:35:39;8.4;;;5.2;;
68375;SDS011;55318;52.068;5.188;2024-02-21T09:37:15;8.81;;;5.5;;
68375;SDS011;55318;52.068;5.188;2024-02-21T09:38:52;10.5;;;5.5;;
68375;SDS011;55318;52.068;5.188;2024-02-21T09:42:08;9.4;;;5.11;;
68375;SDS011;55318;52.068;5.188;2024-02-21T09:43:47;10.1;;;5.5;;
68375;SDS011;55318;52.068;5.188;2024-02-21T09:45:25;8.71;;;5.0;;
68375;SDS011;55318;52.068;5.188;2024-02-21T09:47:02;8.81;;;4.61;;
68375;SDS011;55318;52.068;5.188;2024-02-21T09:50:34;13.3;;;5.0;;
68375;SDS011;55318;52.068;5.188;2024-02-21T09:52:14;11.3;;;5.5;;
68375;SDS011;55318;52.068;5.188;2024-02-21T09:53:51;8.2;;;4.61;;
68375;SDS011;55318;52.068;5.188;2024-02-21T09:55:29;9.9;;;5.0;;
68375;SDS011;55318;52.068;5.188;2024-02-21T09:58:44;9.6;;;4.61;;
68375;SDS011;55318;52.068;5.188;2024-02-21T10:00:22;10.0;;;5.2;;
68375;SDS011;55318;52.068;5.188;2024-02-21T10:02:01;9.6;;;4.5;;
68375;SDS011;55318;52.068;5.188;2024-02-21T10:03:37;10.8;;;4.91;;
68375;SDS011;55318;52.068;5.188;2024-02-21T10:06:50;9.81;;;4.41;;
68375;SDS011;55318;52.068;5.188;2024-02-21T10:08:26;7.2;;;4.7;;
68375;SDS011;55318;52.068;5.188;2024-02-21T10:10:03;8.31;;;4.61;;
68375;SDS011;55318;52.068;5.188;2024-02-21T10:13:23;7.8;;;4.1;;
68375;SDS011;55318;52.068;5.188;2024-02-21T10:15:01;7.3;;;4.1;;
68375;SDS011;55318;52.068;5.188;2024-02-21T10:16:38;6.8;;;4.5;;
68375;SDS011;55318;52.068;5.188;2024-02-21T10:19:53;9.5;;;4.5;;
68375;SDS011;55318;52.068;5.188;2024-02-21T10:21:29;6.3;;;3.9;;
68375;SDS011;55318;52.068;5.188;2024-02-21T10:23:06;7.7;;;4.41;;
68375;SDS011;55318;52.068;5.188;2024-02-21T10:24:45;5.9;;;3.9;;
68375;SDS011;55318;52.068;5.188;2024-02-21T10:27:58;6.0;;;3.8;;
68375;SDS011;55318;52.068;5.188;2024-02-21T10:29:34;6.0;;;3.8;;
68375;SDS011;55318;52.068;5.188;2024-02-21T10:31:11;6.3;;;3.9;;
68375;SDS011;55318;52.068;5.188;2024-02-21T10:32:57;8.71;;;4.5;;
68375;SDS011;55318;52.068;5.188;2024-02-21T10:36:11;6.8;;;4.1;;
68375;SDS011;55318;52.068;5.188;2024-02-21T10:37:47;7.7;;;3.8;;
68375;SDS011;55318;52.068;5.188;2024-02-21T10:39:23;8.4;;;4.1;;
68375;SDS011;55318;52.068;5.188;2024-02-21T10:42:36;7.3;;;4.41;;
68375;SDS011;55318;52.068;5.188;2024-02-21T10:44:13;7.4;;;3.7;;
68375;SDS011;55318;52.068;5.188;2024-02-21T10:45:53;6.4;;;3.7;;
68375;SDS011;55318;52.068;5.188;2024-02-21T10:49:16;7.4;;;3.3;;
68375;SDS011;55318;52.068;5.188;2024-02-21T10:51:00;4.8;;;3.2;;
68375;SDS011;55318;52.068;5.188;2024-02-21T10:52:48;4.91;;;3.1;;
68375;SDS011;55318;52.068;5.188;2024-02-21T10:54:39;5.2;;;3.1;;
68375;SDS011;55318;52.068;5.188;2024-02-21T10:56:22;4.41;;;3.5;;
68375;SDS011;55318;52.068;5.188;2024-02-21T10:58:07;3.9;;;2.7;;
68375;SDS011;55318;52.068;5.188;2024-02-21T11:01:24;6.4;;;3.5;;
68375;SDS011;55318;52.068;5.188;2024-02-21T11:03:02;4.5;;;3.1;;
68375;SDS011;55318;52.068;5.188;2024-02-21T11:04:39;4.8;;;3.8;;
68375;SDS011;55318;52.068;5.188;2024-02-21T11:07:55;5.3;;;3.8;;
68375;SDS011;55318;52.068;5.188;2024-02-21T11:09:34;5.3;;;3.8;;
68375;SDS011;55318;52.068;5.188;2024-02-21T11:11:11;7.2;;;3.9;;
68375;SDS011;55318;52.068;5.188;2024-02-21T11:12:49;8.1;;;4.61;;
68375;SDS011;55318;52.068;5.188;2024-02-21T11:16:05;6.7;;;4.41;;
68375;SDS011;55318;52.068;5.188;2024-02-21T11:17:53;8.1;;;4.5;;
68375;SDS011;55318;52.068;5.188;2024-02-21T11:19:30;8.2;;;4.61;;
68375;SDS011;55318;52.068;5.188;2024-02-21T11:21:06;7.0;;;4.2;;
68375;SDS011;55318;52.068;5.188;2024-02-21T11:24:26;7.3;;;4.91;;
68375;SDS011;55318;52.068;5.188;2024-02-21T11:26:04;6.6;;;4.7;;
68375;SDS011;55318;52.068;5.188;2024-02-21T11:27:45;8.71;;;5.11;;
68375;SDS011;55318;52.068;5.188;2024-02-21T11:31:07;7.3;;;5.11;;
68375;SDS011;55318;52.068;5.188;2024-02-21T11:32:45;9.0;;;5.5;;
68375;SDS011;55318;52.068;5.188;2024-02-21T11:34:21;7.4;;;5.11;;
68375;SDS011;55318;52.068;5.188;2024-02-21T11:35:57;6.9;;;5.3;;
68375;SDS011;55318;52.068;5.188;2024-02-21T11:39:11;9.0;;;5.2;;
68375;SDS011;55318;52.068;5.188;2024-02-21T11:40:47;8.5;;;5.5;;
68375;SDS011;55318;52.068;5.188;2024-02-21T11:42:27;7.2;;;4.91;;
68375;SDS011;55318;52.068;5.188;2024-02-21T11:44:03;9.6;;;4.7;;
68375;SDS011;55318;52.068;5.188;2024-02-21T11:47:16;6.7;;;4.1;;
68375;SDS011;55318;52.068;5.188;2024-02-21T11:48:52;7.7;;;4.8;;
68375;SDS011;55318;52.068;5.188;2024-02-21T11:50:28;5.9;;;4.0;;
68375;SDS011;55318;52.068;5.188;2024-02-21T11:53:42;7.1;;;4.3;;
68375;SDS011;55318;52.068;5.188;2024-02-21T11:55:18;8.2;;;4.1;;
68375;SDS011;55318;52.068;5.188;2024-02-21T11:56:54;8.2;;;4.41;;
68375;SDS011;55318;52.068;5.188;2024-02-21T12:00:12;5.9;;;4.5;;
68375;SDS011;55318;52.068;5.188;2024-02-21T12:01:50;8.0;;;4.41;;
68375;SDS011;55318;52.068;5.188;2024-02-21T12:03:29;7.0;;;4.0;;
68375;SDS011;55318;52.068;5.188;2024-02-21T12:05:06;7.6;;;4.2;;
68375;SDS011;55318;52.068;5.188;2024-02-21T12:08:20;6.9;;;3.7;;
68375;SDS011;55318;52.068;5.188;2024-02-21T12:11:34;8.1;;;4.91;;
68375;SDS011;55318;52.068;5.188;2024-02-21T12:14:46;7.8;;;5.0;;
68375;SDS011;55318;52.068;5.188;2024-02-21T12:16:31;4.61;;;3.6;;
68375;SDS011;55318;52.068;5.188;2024-02-21T12:18:08;6.7;;;3.9;;
68375;SDS011;55318;52.068;5.188;2024-02-21T12:19:46;5.11;;;3.6;;
68375;SDS011;55318;52.068;5.188;2024-02-21T12:23:00;5.0;;;3.7;;
68375;SDS011;55318;52.068;5.188;2024-02-21T12:24:37;7.7;;;3.9;;
68375;SDS011;55318;52.068;5.188;2024-02-21T12:26:13;6.3;;;3.8;;
68375;SDS011;55318;52.068;5.188;2024-02-21T12:29:25;10.3;;;3.8;;
68375;SDS011;55318;52.068;5.188;2024-02-21T12:31:01;5.8;;;3.8;;
68375;SDS011;55318;52.068;5.188;2024-02-21T12:32:37;6.4;;;4.2;;
68375;SDS011;55318;52.068;5.188;2024-02-21T12:35:51;7.9;;;3.7;;
68375;SDS011;55318;52.068;5.188;2024-02-21T12:37:27;6.4;;;3.9;;
68375;SDS011;55318;52.068;5.188;2024-02-21T12:39:03;7.0;;;4.2;;
68375;SDS011;55318;52.068;5.188;2024-02-21T12:40:39;6.2;;;3.4;;
68375;SDS011;55318;52.068;5.188;2024-02-21T12:43:51;7.7;;;3.2;;
68375;SDS011;55318;52.068;5.188;2024-02-21T12:45:27;6.1;;;3.3;;
68375;SDS011;55318;52.068;5.188;2024-02-21T12:47:04;6.5;;;3.7;;
68375;SDS011;55318;52.068;5.188;2024-02-21T12:50:17;4.8;;;3.0;;
68375;SDS011;55318;52.068;5.188;2024-02-21T12:51:53;8.6;;;3.8;;
68375;SDS011;55318;52.068;5.188;2024-02-21T12:53:30;8.2;;;3.5;;
68375;SDS011;55318;52.068;5.188;2024-02-21T12:56:43;7.3;;;3.0;;